Time;durP1;ratioP1;P1;durP2;ratioP2;P2;SDS_P1;SDS_P2;PMS_P1;PMS_P2;Temp;Humidity;BMP_temperature;BMP_pressure;BME280_temperature;BME280_humidity;BME280_pressure;Samples;Min_cycle;Max_cycle;Signal;HPM_P1;HPM_P2
2021/07/07 00:10:38;;;;;;;12.37;11.30;;;;;;;24.83;70.59;100351.03;20807760;28;20221;-58
2021/07/07 00:20:42;;;;;;;13.80;12.40;;;;;;;24.57;71.75;100346.06;20808440;28;20228;-57
2021/07/07 00:30:43;;;;;;;13.67;12.57;;;;;;;24.41;72.70;100347.06;20806203;28;20312;-57
2021/07/07 00:40:44;;;;;;;14.98;13.77;;;;;;;24.40;72.12;100345.38;20806906;28;20301;-55
2021/07/07 01:00:53;;;;;;;15.23;14.07;;;;;;;24.44;72.03;100346.72;20770546;27;8251942;-55
2021/07/07 01:10:56;;;;;;;15.30;14.07;;;;;;;24.49;71.54;100347.00;21057248;28;20225;-62
2021/07/07 01:20:57;;;;;;;16.30;15.00;;;;;;;24.39;72.88;100351.91;21001844;28;20288;-56
2021/07/07 01:31:04;;;;;;;16.50;14.97;;;;;;;24.30;72.54;100334.75;20972379;28;20316;-55
2021/07/07 01:41:05;;;;;;;15.87;14.77;;;;;;;24.24;73.39;100334.66;20983097;28;20223;-55
2021/07/07 01:51:05;;;;;;;17.23;15.87;;;;;;;24.27;72.44;100342.47;20970501;28;20305;-55
2021/07/07 02:01:06;;;;;;;16.00;14.77;;;;;;;24.18;73.03;100338.94;20969451;28;20295;-56
2021/07/07 02:31:22;;;;;;;17.97;16.47;;;;;;;24.10;73.03;100352.66;20613985;27;8258925;-62
2021/07/07 03:11:20;;;;;;;16.47;15.27;;;;;;;27.96;62.32;100392.13;20616541;27;8208703;-55
2021/07/07 03:21:21;;;;;;;14.83;13.63;;;;;;;29.90;59.45;100404.06;20890346;28;20318;-55
2021/07/07 03:31:21;;;;;;;13.40;12.30;;;;;;;31.72;55.52;100407.06;20890861;28;20724;-57
2021/07/07 03:41:22;;;;;;;12.80;11.90;;;;;;;34.07;51.87;100422.38;20895507;28;20245;-60
2021/07/07 03:51:22;;;;;;;12.33;11.33;;;;;;;36.13;48.99;100428.28;20889538;28;20220;-57
2021/07/07 04:01:23;;;;;;;10.75;9.95;;;;;;;38.56;45.61;100450.88;20888468;28;20303;-56
2021/07/07 04:11:23;;;;;;;10.10;9.23;;;;;;;40.71;42.28;100450.41;20970182;28;20246;-56
2021/07/07 04:21:25;;;;;;;9.75;9.13;;;;;;;42.57;39.41;100464.19;20920454;28;20234;-57
2021/07/07 04:31:26;;;;;;;9.55;8.85;;;;;;;44.02;37.64;100471.97;20910310;28;20288;-59
2021/07/07 04:41:26;;;;;;;8.50;7.88;;;;;;;45.97;35.25;100481.28;20902235;28;20302;-55
2021/07/07 04:51:27;;;;;;;8.88;8.27;;;;;;;45.76;34.83;100479.09;20912352;28;20573;-56
2021/07/07 05:01:27;;;;;;;9.15;8.35;;;;;;;46.71;33.91;100489.56;20908737;28;20223;-56
2021/07/07 05:11:28;;;;;;;9.63;8.93;;;;;;;43.95;37.68;100478.00;20898014;28;20927;-61
2021/07/07 05:21:28;;;;;;;10.35;9.45;;;;;;;38.04;44.87;100451.91;20882455;28;20591;-56
2021/07/07 05:31:29;;;;;;;11.57;10.68;;;;;;;34.94;47.57;100450.44;20894486;28;20230;-57
2021/07/07 05:41:30;;;;;;;12.00;11.05;;;;;;;33.48;49.13;100446.69;20786341;28;20628;-58
2021/07/07 05:51:31;;;;;;;12.05;11.05;;;;;;;33.33;50.57;100458.28;20821101;28;20262;-57
2021/07/07 06:01:31;;;;;;;13.75;12.45;;;;;;;33.45;51.61;100470.16;20823507;28;20270;-56
2021/07/07 06:11:31;;;;;;;12.77;11.77;;;;;;;33.54;51.98;100467.88;20822986;28;20228;-57
2021/07/07 06:21:32;;;;;;;13.75;12.32;;;;;;;33.29;51.67;100470.09;20821677;28;20224;-59
2021/07/07 06:31:32;;;;;;;13.05;12.05;;;;;;;33.54;52.32;100473.41;20822454;28;20216;-57
2021/07/07 06:41:33;;;;;;;12.80;11.85;;;;;;;33.47;51.53;100464.38;20821446;28;20331;-58
2021/07/07 06:51:33;;;;;;;11.68;10.77;;;;;;;33.81;52.07;100468.16;20821133;28;20219;-57
2021/07/07 07:01:34;;;;;;;11.23;10.10;;;;;;;33.87;51.15;100472.69;20820570;28;20595;-58
2021/07/07 07:11:34;;;;;;;12.13;11.00;;;;;;;34.10;50.29;100480.03;20819064;28;20297;-57
2021/07/07 07:21:35;;;;;;;9.88;9.20;;;;;;;34.15;50.32;100481.00;20820275;28;20273;-58
2021/07/07 07:31:35;;;;;;;10.25;9.45;;;;;;;34.38;50.21;100474.50;20819783;28;20228;-57
2021/07/07 07:41:39;;;;;;;10.43;9.63;;;;;;;34.61;47.96;100476.25;20819637;28;20227;-59
2021/07/07 07:51:40;;;;;;;9.00;8.38;;;;;;;34.42;48.23;100464.56;20824891;28;20299;-61
2021/07/07 08:01:40;;;;;;;8.98;8.18;;;;;;;34.57;48.45;100483.38;20833921;28;20220;-57
2021/07/07 08:11:43;;;;;;;7.97;7.40;;;;;;;35.31;48.83;100490.38;20831850;28;20235;-57
2021/07/07 08:21:43;;;;;;;8.00;7.40;;;;;;;35.53;48.03;100476.50;20832403;28;20220;-57
2021/07/07 08:31:50;;;;;;;8.18;7.45;;;;;;;35.36;42.67;100486.84;20831098;28;20212;-59
2021/07/07 08:41:51;;;;;;;8.23;7.45;;;;;;;35.21;45.42;100492.16;20830941;28;20254;-58
2021/07/07 08:51:51;;;;;;;8.00;7.40;;;;;;;35.49;45.08;100496.72;20830118;28;20239;-57
2021/07/07 09:02:06;;;;;;;8.60;7.63;;;;;;;35.71;41.32;100489.22;20827228;28;20220;-57
2021/07/07 09:12:13;;;;;;;7.35;6.75;;;;;;;35.92;41.79;100496.72;20828493;28;20220;-57
2021/07/07 09:22:14;;;;;;;7.80;7.22;;;;;;;36.19;43.46;100512.56;20827695;28;20228;-57
2021/07/07 09:32:31;;;;;;;9.00;7.00;;;;;;;36.29;42.33;100512.69;20827100;28;20220;-57
2021/07/07 09:42:34;;;;;;;7.13;6.57;;;;;;;36.30;43.29;100519.91;20825176;28;20342;-60
2021/07/07 09:52:35;;;;;;;6.65;6.20;;;;;;;36.75;44.11;100519.50;20825520;28;20231;-59
2021/07/07 10:02:35;;;;;;;7.65;6.93;;;;;;;36.86;42.89;100520.41;20823206;28;20240;-57
2021/07/07 10:12:35;;;;;;;6.35;5.95;;;;;;;36.93;43.62;100523.81;20821993;28;20248;-57
2021/07/07 10:22:37;;;;;;;6.95;6.28;;;;;;;36.93;43.52;100512.69;20823219;28;20227;-58
2021/07/07 10:32:38;;;;;;;7.45;6.95;;;;;;;36.81;42.52;100509.25;20822472;28;20326;-58
2021/07/07 10:42:46;;;;;;;7.23;6.63;;;;;;;36.59;39.41;100515.72;20820611;28;20831;-58
2021/07/07 10:52:46;;;;;;;6.45;5.95;;;;;;;36.83;42.29;100515.41;20821180;28;20500;-64
2021/07/07 11:02:48;;;;;;;6.72;6.18;;;;;;;36.57;44.77;100515.16;20819467;28;20228;-57
2021/07/07 11:12:55;;;;;;;6.53;6.03;;;;;;;37.42;36.20;100516.91;20820553;28;20303;-57
2021/07/07 11:23:05;;;;;;;6.40;5.90;;;;;;;37.30;37.13;100512.69;20819921;28;20359;-58
2021/07/07 11:33:06;;;;;;;5.75;5.35;;;;;;;37.42;39.07;100516.91;20836396;28;20273;-57
2021/07/07 11:43:14;;;;;;;6.30;5.90;;;;;;;37.43;37.10;100510.25;20834408;28;20216;-57
2021/07/07 11:53:16;;;;;;;6.47;6.05;;;;;;;37.48;40.42;100509.41;20835066;28;20299;-57
2021/07/07 12:03:24;;;;;;;6.88;6.38;;;;;;;37.90;40.11;100506.53;20832561;28;20234;-58
2021/07/07 12:13:29;;;;;;;6.82;6.25;;;;;;;38.45;39.80;100513.34;20833465;28;20232;-63
2021/07/07 12:23:29;;;;;;;7.70;7.00;;;;;;;38.40;39.94;100510.56;20832729;28;20689;-59
2021/07/07 12:33:30;;;;;;;7.05;6.50;;;;;;;38.49;40.07;100497.72;20831735;28;20220;-57
2021/07/07 12:43:41;;;;;;;7.32;6.70;;;;;;;38.89;40.50;100520.03;20829215;28;20228;-58
2021/07/07 12:53:44;;;;;;;8.18;7.47;;;;;;;38.49;38.89;100503.31;20830200;28;20220;-59
2021/07/07 13:03:44;;;;;;;5.93;5.55;;;;;;;39.64;41.11;100527.72;20827825;28;20242;-59
2021/07/07 13:13:45;;;;;;;6.70;6.25;;;;;;;39.71;38.01;100517.09;20828870;28;20307;-58
2021/07/07 13:23:49;;;;;;;6.97;6.47;;;;;;;39.18;36.67;100517.50;20827964;28;20734;-57
2021/07/07 13:33:50;;;;;;;6.47;6.07;;;;;;;37.84;41.92;100507.63;20805478;28;20248;-57
2021/07/07 13:43:51;;;;;;;6.75;6.13;;;;;;;37.93;41.30;100503.19;20788892;28;20672;-58
2021/07/07 13:53:51;;;;;;;6.70;6.25;;;;;;;37.80;41.06;100500.91;20758893;28;20229;-58
2021/07/07 14:03:53;;;;;;;6.40;5.80;;;;;;;38.51;42.64;100517.81;20773828;28;20705;-59
2021/07/07 14:13:53;;;;;;;11.13;6.50;;;;;;;38.92;39.88;100502.72;20789986;28;20227;-60
2021/07/07 14:23:54;;;;;;;9.73;6.40;;;;;;;38.91;39.31;100498.28;20813004;28;20696;-59
2021/07/07 14:33:56;;;;;;;6.78;6.18;;;;;;;38.33;39.80;100496.03;20800943;28;20281;-62
2021/07/07 14:44:01;;;;;;;7.53;6.72;;;;;;;37.43;40.57;100487.97;20807451;28;20232;-59
2021/07/07 14:54:01;;;;;;;6.47;6.00;;;;;;;37.49;41.63;100500.78;20803623;28;20308;-59
2021/07/07 15:04:01;;;;;;;6.38;5.80;;;;;;;38.14;40.97;100491.03;20797270;28;20240;-61
2021/07/07 15:14:02;;;;;;;6.53;5.80;;;;;;;38.32;40.96;100483.22;20813137;28;20243;-58
2021/07/07 15:24:03;;;;;;;6.15;5.72;;;;;;;37.95;41.21;100486.19;20767126;28;20255;-60
2021/07/07 15:34:06;;;;;;;6.43;5.78;;;;;;;37.52;41.21;100493.00;20854018;28;20315;-58
2021/07/07 15:44:06;;;;;;;6.03;5.63;;;;;;;37.60;41.83;100500.81;20901849;28;20317;-58
2021/07/07 15:54:08;;;;;;;6.05;5.43;;;;;;;38.53;42.16;100501.66;20901711;28;20238;-58
2021/07/07 16:04:08;;;;;;;5.97;5.47;;;;;;;39.01;42.43;100505.81;20899815;28;20258;-57
2021/07/07 16:14:09;;;;;;;7.70;5.72;;;;;;;38.67;42.16;100505.56;20908383;28;20702;-58
2021/07/07 16:24:09;;;;;;;5.88;5.45;;;;;;;37.81;42.92;100491.44;20914976;28;20242;-58
2021/07/07 16:34:09;;;;;;;7.57;5.75;;;;;;;37.33;43.63;100501.81;20914204;28;20223;-63
2021/07/07 16:44:10;;;;;;;6.55;5.68;;;;;;;36.97;43.79;100491.56;20913373;28;20310;-63
2021/07/07 16:54:11;;;;;;;6.20;5.70;;;;;;;37.36;44.59;100492.94;20911241;28;20216;-58
2021/07/07 17:04:11;;;;;;;6.10;5.70;;;;;;;39.12;42.76;100507.50;20909412;28;20769;-63
2021/07/07 17:14:19;;;;;;;9.05;5.72;;;;;;;40.03;36.49;100503.50;20911442;28;20212;-64
2021/07/07 17:24:19;;;;;;;5.93;5.38;;;;;;;40.24;41.23;100499.44;20910402;28;20235;-58
2021/07/07 17:34:20;;;;;;;7.70;5.15;;;;;;;39.98;40.80;100514.69;20907842;28;20272;-60
2021/07/07 17:44:21;;;;;;;5.53;5.03;;;;;;;39.57;40.51;100505.69;20908694;28;20223;-59
2021/07/07 17:54:21;;;;;;;5.82;5.43;;;;;;;38.77;41.26;100515.84;20906801;28;20226;-61
2021/07/07 18:04:22;;;;;;;5.57;5.25;;;;;;;38.08;42.14;100519.97;20904412;28;20224;-63
2021/07/07 18:14:22;;;;;;;6.28;5.57;;;;;;;37.13;43.03;100523.94;20887595;28;20292;-58
2021/07/07 18:24:23;;;;;;;5.90;5.32;;;;;;;35.80;44.11;100518.25;20905561;28;20231;-64
2021/07/07 18:34:23;;;;;;;6.85;6.25;;;;;;;34.20;45.31;100530.94;20904883;28;20215;-62
2021/07/07 18:44:24;;;;;;;6.25;5.75;;;;;;;33.18;47.74;100530.69;20904175;28;20299;-57
2021/07/07 18:54:24;;;;;;;6.57;5.97;;;;;;;32.48;48.49;100547.19;20904007;28;20219;-60
2021/07/07 19:04:25;;;;;;;6.60;6.00;;;;;;;32.04;49.37;100550.38;20902159;28;20227;-57
2021/07/07 19:14:26;;;;;;;7.07;6.47;;;;;;;31.89;49.46;100563.72;20903067;28;20230;-57
2021/07/07 19:24:26;;;;;;;6.47;6.03;;;;;;;31.60;50.55;100580.00;20902615;28;20238;-57
2021/07/07 19:34:27;;;;;;;7.17;6.67;;;;;;;31.44;51.27;100583.34;20902229;28;20280;-56
2021/07/07 19:44:28;;;;;;;7.50;6.90;;;;;;;31.26;51.85;100597.13;20902530;28;20242;-57
2021/07/07 19:54:28;;;;;;;7.83;6.37;;;;;;;30.90;52.30;100598.69;20917530;28;20216;-57
2021/07/07 20:14:37;;;;;;;7.87;7.33;;;;;;;30.47;53.16;100603.19;20606312;27;8375182;-55
2021/07/07 20:24:37;;;;;;;7.70;7.10;;;;;;;30.59;54.44;100607.81;20891468;28;20226;-63
2021/07/07 20:34:38;;;;;;;8.00;7.20;;;;;;;30.17;54.85;100625.84;20890734;28;20276;-62
2021/07/07 20:44:38;;;;;;;8.60;7.83;;;;;;;30.04;55.71;100620.38;20889927;28;20295;-63
2021/07/07 20:54:39;;;;;;;8.27;7.67;;;;;;;30.13;55.06;100635.59;20888688;28;20633;-56
2021/07/07 21:24:44;;;;;;;8.80;8.20;;;;;;;29.76;57.79;100655.56;20532974;27;8304500;-56
2021/07/07 21:34:45;;;;;;;11.80;10.80;;;;;;;29.35;59.87;100681.41;20807650;28;20232;-56
2021/07/07 21:44:45;;;;;;;10.77;9.87;;;;;;;29.50;59.26;100679.31;20815713;28;20314;-57
2021/07/07 22:04:55;;;;;;;8.43;7.77;;;;;;;29.53;59.60;100698.16;20769887;27;8265053;-56
2021/07/07 22:14:55;;;;;;;9.90;9.10;;;;;;;29.69;59.61;100716.13;21057706;28;20256;-56
2021/07/07 22:24:56;;;;;;;9.50;8.80;;;;;;;29.76;59.42;100702.34;21057316;28;20222;-56
2021/07/07 22:34:56;;;;;;;10.13;9.33;;;;;;;29.46;60.49;100713.84;21056498;28;20218;-56
2021/07/07 22:55:19;;;;;;;10.47;9.63;;;;;;;29.03;61.41;100722.44;20772529;27;8301720;-63
2021/07/07 23:05:29;;;;;;;9.70;8.90;;;;;;;28.74;62.91;100732.91;21057858;28;20218;-56
2021/07/07 23:25:39;;;;;;;9.00;8.10;;;;;;;28.40;65.95;100753.03;20609475;27;8281597;-61
